Time;durP1;ratioP1;P1;durP2;ratioP2;P2;SDS_P1;SDS_P2;PMS_P1;PMS_P2;Temp;Humidity;BMP_temperature;BMP_pressure;BME280_temperature;BME280_humidity;BME280_pressure;Samples;Min_cycle;Max_cycle;Signal;HPM_P1;HPM_P2
2022/12/03 00:02:18;;;;;;;20.13;12.93;;;1.80;99.90;;;;;;5036181;28;20645;-45
2022/12/03 00:04:43;;;;;;;20.43;12.57;;;1.80;99.90;;;;;;5036024;28;20170;-43
2022/12/03 00:07:09;;;;;;;20.77;12.67;;;1.80;99.90;;;;;;5036228;28;20181;-42
2022/12/03 00:09:34;;;;;;;18.57;12.07;;;1.80;99.90;;;;;;5035858;28;20287;-43
2022/12/03 00:12:00;;;;;;;19.07;11.97;;;1.70;99.90;;;;;;5036172;28;20235;-43
2022/12/03 00:14:26;;;;;;;18.27;12.20;;;1.70;99.90;;;;;;5035900;28;20176;-44
2022/12/03 00:16:51;;;;;;;17.37;11.93;;;1.70;99.90;;;;;;5035862;28;20203;-43
2022/12/03 00:19:17;;;;;;;20.37;12.70;;;1.70;99.90;;;;;;5035666;28;20231;-42
2022/12/03 00:21:42;;;;;;;20.30;12.67;;;1.70;99.90;;;;;;5035977;28;20303;-43
2022/12/03 00:24:08;;;;;;;18.47;12.07;;;1.70;99.90;;;;;;5017796;28;20172;-43
2022/12/03 00:26:33;;;;;;;19.53;13.10;;;1.60;99.90;;;;;;5036111;28;20222;-44
2022/12/03 00:28:59;;;;;;;22.50;12.67;;;1.70;99.90;;;;;;5035616;28;20201;-41
2022/12/03 00:31:25;;;;;;;19.20;12.17;;;1.70;99.90;;;;;;5035563;28;20165;-43
2022/12/03 00:33:51;;;;;;;20.03;12.80;;;1.70;99.90;;;;;;5035851;28;20533;-44
2022/12/03 00:36:17;;;;;;;19.20;11.47;;;1.60;99.90;;;;;;5017736;28;20169;-44
2022/12/03 00:38:43;;;;;;;20.87;12.07;;;1.70;99.90;;;;;;5035749;28;20314;-43
2022/12/03 00:41:08;;;;;;;17.93;11.10;;;1.60;99.90;;;;;;5035933;28;20291;-43
2022/12/03 00:43:34;;;;;;;19.57;12.27;;;1.70;99.90;;;;;;5036074;28;20192;-43
2022/12/03 00:45:59;;;;;;;21.83;12.73;;;1.70;99.90;;;;;;5036364;28;20181;-46
2022/12/03 00:48:25;;;;;;;16.33;9.87;;;1.70;99.90;;;;;;5035780;28;20202;-44
2022/12/03 00:50:51;;;;;;;18.47;12.80;;;1.70;99.90;;;;;;5035498;28;20177;-44
2022/12/03 00:53:16;;;;;;;20.43;11.93;;;1.70;99.90;;;;;;5035457;28;20185;-45
2022/12/03 00:55:42;;;;;;;21.30;11.80;;;1.60;99.90;;;;;;5035479;28;20214;-44
2022/12/03 00:58:08;;;;;;;19.53;12.13;;;1.70;99.90;;;;;;5035472;28;20561;-41
2022/12/03 01:00:34;;;;;;;19.67;12.53;;;1.70;99.90;;;;;;5035342;28;20707;-44
2022/12/03 01:03:00;;;;;;;16.70;11.43;;;1.60;99.90;;;;;;5035077;28;20193;-42
2022/12/03 01:05:25;;;;;;;19.90;13.37;;;1.70;99.90;;;;;;5035333;28;20242;-45
2022/12/03 01:07:51;;;;;;;19.43;11.47;;;1.70;99.90;;;;;;5034569;28;20667;-44
2022/12/03 01:10:17;;;;;;;19.33;10.87;;;1.60;99.90;;;;;;5034719;28;20192;-44
2022/12/03 01:12:42;;;;;;;19.23;11.90;;;1.70;99.90;;;;;;5034996;28;20189;-42
2022/12/03 01:15:08;;;;;;;20.30;11.70;;;1.70;99.90;;;;;;5034675;28;20196;-43
2022/12/03 01:17:34;;;;;;;20.07;11.70;;;1.70;99.90;;;;;;5034721;28;20192;-44
2022/12/03 01:20:00;;;;;;;19.30;11.10;;;1.70;99.90;;;;;;5016989;28;20669;-43
2022/12/03 01:22:26;;;;;;;17.87;11.13;;;1.70;99.90;;;;;;5034699;28;20641;-44
2022/12/03 01:24:52;;;;;;;16.17;10.60;;;1.70;99.90;;;;;;5016863;28;20185;-47
2022/12/03 01:27:18;;;;;;;17.67;11.37;;;1.70;99.90;;;;;;5035147;28;20677;-46
2022/12/03 01:29:43;;;;;;;14.80;10.13;;;1.60;99.90;;;;;;5034399;28;20205;-46
2022/12/03 01:32:16;;;;;;;16.97;11.33;;;1.70;99.90;;;;;;5034827;28;20574;-48
2022/12/03 01:34:50;;;;;;;15.83;10.57;;;1.60;99.90;;;;;;5034516;28;20610;-47
2022/12/03 01:37:16;;;;;;;18.00;11.47;;;1.70;99.90;;;;;;5034424;28;20207;-48
2022/12/03 01:39:43;;;;;;;17.17;11.47;;;1.70;99.90;;;;;;5034970;28;20208;-48
2022/12/03 01:42:22;;;;;;;16.77;10.40;;;1.70;99.90;;;;;;5034602;28;20187;-47
2022/12/03 01:44:51;;;;;;;16.63;11.50;;;1.70;99.90;;;;;;5034392;28;20172;-47
2022/12/03 01:47:19;;;;;;;17.10;11.70;;;1.70;99.90;;;;;;5034562;28;20188;-46
2022/12/03 01:49:49;;;;;;;17.87;11.43;;;1.70;99.90;;;;;;5034108;28;20236;-47
2022/12/03 01:52:19;;;;;;;18.30;11.90;;;1.70;99.90;;;;;;5034382;28;20176;-48
2022/12/03 01:54:52;;;;;;;18.43;11.87;;;1.80;99.90;;;;;;5034230;28;20310;-48
2022/12/03 01:57:23;;;;;;;18.40;11.93;;;1.70;99.90;;;;;;5034400;28;20673;-45
2022/12/03 01:59:49;;;;;;;19.80;12.07;;;1.70;99.90;;;;;;5016052;28;20209;-48
2022/12/03 02:02:27;;;;;;;17.27;11.17;;;1.70;99.90;;;;;;5033771;28;20184;-48
2022/12/03 02:04:53;;;;;;;17.53;11.63;;;1.80;99.90;;;;;;5034180;28;20173;-46
2022/12/03 02:07:23;;;;;;;17.87;11.47;;;1.80;99.90;;;;;;5034017;28;20207;-48
2022/12/03 02:09:49;;;;;;;15.67;10.43;;;1.80;99.90;;;;;;5034005;28;20287;-47
2022/12/03 02:12:18;;;;;;;17.57;11.27;;;1.80;99.90;;;;;;5033649;28;20335;-47
2022/12/03 02:14:44;;;;;;;17.97;11.40;;;1.80;99.90;;;;;;5033604;28;20196;-47
2022/12/03 02:17:11;;;;;;;18.47;11.03;;;1.80;99.90;;;;;;5033921;28;20181;-47
2022/12/03 02:19:36;;;;;;;17.70;12.23;;;1.80;99.90;;;;;;5033085;28;20223;-47
2022/12/03 02:22:19;;;;;;;20.93;11.90;;;1.80;99.90;;;;;;5033749;28;20189;-48
2022/12/03 02:25:09;;;;;;;18.97;11.60;;;1.80;99.90;;;;;;5033807;28;20193;-49
2022/12/03 02:27:35;;;;;;;20.77;12.37;;;1.80;99.90;;;;;;5033576;28;20168;-46
2022/12/03 02:30:01;;;;;;;19.20;12.17;;;1.80;99.90;;;;;;5033584;28;20211;-49
2022/12/03 02:32:26;;;;;;;19.27;11.77;;;1.80;99.90;;;;;;5033684;28;20552;-47
2022/12/03 02:34:52;;;;;;;16.33;10.70;;;1.80;99.90;;;;;;5033878;28;20641;-49
2022/12/03 02:37:32;;;;;;;16.87;10.87;;;1.80;99.90;;;;;;5033614;28;20270;-47
2022/12/03 02:40:07;;;;;;;19.73;11.37;;;1.80;99.90;;;;;;5033489;28;20220;-47
2022/12/03 02:42:35;;;;;;;18.00;11.70;;;1.80;99.90;;;;;;5034198;28;20169;-48
2022/12/03 02:45:13;;;;;;;18.97;11.63;;;1.80;99.90;;;;;;5033686;28;20256;-47
2022/12/03 02:47:50;;;;;;;16.20;11.00;;;1.80;99.90;;;;;;5033746;28;20675;-47
2022/12/03 02:50:19;;;;;;;17.30;11.03;;;1.80;99.90;;;;;;5033608;28;20208;-47
2022/12/03 02:52:46;;;;;;;16.97;12.07;;;1.80;99.90;;;;;;5033630;28;20200;-46
2022/12/03 02:55:14;;;;;;;18.53;11.83;;;1.80;99.90;;;;;;5033427;28;20235;-46
2022/12/03 02:57:40;;;;;;;19.03;12.07;;;1.90;99.90;;;;;;5033752;28;20185;-43
2022/12/03 03:00:08;;;;;;;16.97;11.00;;;1.90;99.90;;;;;;5032865;28;20205;-44
2022/12/03 03:02:36;;;;;;;19.23;12.03;;;1.90;99.90;;;;;;5033126;28;20617;-41
2022/12/03 03:05:02;;;;;;;18.20;10.90;;;1.90;99.90;;;;;;5033616;28;20161;-43
2022/12/03 03:07:28;;;;;;;19.27;11.37;;;1.90;99.90;;;;;;5033548;28;20223;-44
2022/12/03 03:09:54;;;;;;;17.60;11.67;;;1.90;99.90;;;;;;5033198;28;20215;-40
2022/12/03 03:12:19;;;;;;;17.17;11.53;;;1.90;99.90;;;;;;5033691;28;20641;-44
2022/12/03 03:14:45;;;;;;;18.57;12.00;;;1.90;99.90;;;;;;5033216;28;20189;-44
2022/12/03 03:17:11;;;;;;;19.13;12.43;;;1.90;99.90;;;;;;5033250;28;20193;-41
2022/12/03 03:19:37;;;;;;;17.57;11.97;;;1.90;99.90;;;;;;5033401;28;20201;-44
2022/12/03 03:22:02;;;;;;;18.10;11.73;;;1.90;99.90;;;;;;5033221;28;20687;-43
2022/12/03 03:24:28;;;;;;;17.03;10.73;;;1.90;99.90;;;;;;5033225;28;20177;-41
2022/12/03 03:26:54;;;;;;;22.20;12.30;;;1.90;99.90;;;;;;5033020;28;20185;-42
2022/12/03 03:29:20;;;;;;;19.80;11.57;;;1.90;99.90;;;;;;5032693;28;20197;-42
2022/12/03 03:31:45;;;;;;;19.70;11.60;;;1.90;99.90;;;;;;5034408;28;20216;-42
2022/12/03 03:34:12;;;;;;;18.17;11.17;;;1.90;99.90;;;;;;5036998;28;20669;-43
2022/12/03 03:36:38;;;;;;;19.30;11.40;;;1.90;99.90;;;;;;5036798;28;20636;-44
2022/12/03 03:39:05;;;;;;;21.07;11.93;;;1.90;99.90;;;;;;5036707;28;20685;-41
2022/12/03 03:41:32;;;;;;;18.43;11.30;;;1.90;99.90;;;;;;5036897;28;20687;-43
2022/12/03 03:43:58;;;;;;;19.27;12.23;;;1.90;99.90;;;;;;5036546;28;20625;-42
2022/12/03 03:46:24;;;;;;;17.43;12.50;;;2.00;99.90;;;;;;5036752;28;20276;-42
2022/12/03 03:48:50;;;;;;;17.47;11.43;;;1.90;99.90;;;;;;5018635;28;20259;-42
2022/12/03 03:51:17;;;;;;;18.83;11.43;;;2.00;99.90;;;;;;5036306;28;20204;-42
2022/12/03 03:53:49;;;;;;;19.40;11.83;;;1.90;99.90;;;;;;5036357;28;20192;-42
2022/12/03 03:56:16;;;;;;;21.80;13.00;;;2.00;99.90;;;;;;5018826;28;20212;-42
2022/12/03 03:58:42;;;;;;;21.07;12.43;;;2.00;99.90;;;;;;5018372;28;20273;-43
2022/12/03 04:01:10;;;;;;;17.60;11.73;;;2.00;99.90;;;;;;5036029;28;20319;-44
2022/12/03 04:03:35;;;;;;;19.60;12.17;;;2.00;99.90;;;;;;5035989;28;20195;-42
2022/12/03 04:06:01;;;;;;;24.43;11.90;;;2.00;99.90;;;;;;5036190;28;20177;-42
2022/12/03 04:08:27;;;;;;;20.57;12.10;;;2.00;99.90;;;;;;5036133;28;20197;-43
2022/12/03 04:13:37;;;;;;;16.43;10.47;;;2.00;99.90;;;;;;5036123;28;20183;-43
2022/12/03 04:16:02;;;;;;;24.23;12.90;;;2.00;99.90;;;;;;5035749;28;20184;-43
2022/12/03 04:18:43;;;;;;;29.20;13.13;;;2.00;99.90;;;;;;5035917;28;20299;-41
2022/12/03 04:24:06;;;;;;;18.40;11.40;;;2.00;99.90;;;;;;5036363;28;20208;-42
2022/12/03 04:29:17;;;;;;;19.30;11.37;;;2.00;99.90;;;;;;5035828;28;20680;-43
2022/12/03 04:37:11;;;;;;;20.23;12.27;;;1.90;99.90;;;;;;5036258;28;20195;-47
2022/12/03 04:39:37;;;;;;;19.10;11.77;;;1.90;99.90;;;;;;5036055;28;20200;-42
2022/12/03 04:42:03;;;;;;;22.50;13.20;;;2.00;99.90;;;;;;5035179;28;20192;-45
2022/12/03 04:44:37;;;;;;;19.23;12.13;;;2.00;99.90;;;;;;5035751;28;20184;-43
2022/12/03 04:47:11;;;;;;;20.93;12.47;;;2.00;99.90;;;;;;5035394;28;20157;-44
2022/12/03 04:49:42;;;;;;;21.73;12.63;;;2.00;99.90;;;;;;5035613;28;20512;-42
2022/12/03 04:52:10;;;;;;;21.77;12.27;;;1.90;99.90;;;;;;5035683;28;20226;-43
2022/12/03 04:54:36;;;;;;;23.63;12.50;;;2.00;99.90;;;;;;5035199;28;20188;-41
2022/12/03 04:57:01;;;;;;;20.80;12.47;;;2.00;99.90;;;;;;5017383;28;20188;-44
2022/12/03 04:59:27;;;;;;;21.47;12.73;;;2.00;99.90;;;;;;5035237;28;20205;-44
2022/12/03 05:01:53;;;;;;;23.77;13.57;;;2.00;99.90;;;;;;5035322;28;20204;-41
2022/12/03 05:04:19;;;;;;;21.30;12.57;;;2.00;99.90;;;;;;5035241;28;20229;-43
2022/12/03 05:06:44;;;;;;;22.50;12.47;;;2.00;99.90;;;;;;5017326;28;20176;-44
2022/12/03 05:09:11;;;;;;;19.43;10.23;;;2.00;99.90;;;;;;5034949;28;20196;-43
2022/12/03 05:11:37;;;;;;;21.70;11.47;;;2.00;99.90;;;;;;5035047;28;20256;-43
2022/12/03 05:14:02;;;;;;;22.87;13.93;;;2.00;99.90;;;;;;5034899;28;20582;-42
2022/12/03 05:16:28;;;;;;;24.97;12.10;;;2.00;99.90;;;;;;5035277;28;20276;-44
2022/12/03 05:18:54;;;;;;;25.13;13.27;;;2.00;99.90;;;;;;5034801;28;20281;-43
2022/12/03 05:21:19;;;;;;;18.57;12.00;;;2.00;99.90;;;;;;5034601;28;20252;-42
2022/12/03 05:23:45;;;;;;;21.03;12.17;;;2.00;99.90;;;;;;5034604;28;20641;-43
2022/12/03 05:26:11;;;;;;;20.00;12.50;;;2.00;99.90;;;;;;5017129;28;20209;-43
2022/12/03 05:28:36;;;;;;;19.27;11.33;;;2.00;99.90;;;;;;5034478;28;20676;-44
2022/12/03 05:31:03;;;;;;;18.33;11.67;;;2.00;99.90;;;;;;5034467;28;20613;-42
2022/12/03 05:33:29;;;;;;;21.73;12.27;;;2.00;99.90;;;;;;5034894;28;20187;-41
2022/12/03 05:35:55;;;;;;;20.67;12.27;;;2.00;99.90;;;;;;5034740;28;20177;-42
2022/12/03 05:38:20;;;;;;;21.47;12.27;;;2.00;99.90;;;;;;5034305;28;20205;-44
2022/12/03 05:40:46;;;;;;;20.37;12.47;;;2.00;99.90;;;;;;5034836;28;20215;-40
2022/12/03 05:43:11;;;;;;;20.17;12.57;;;2.00;99.90;;;;;;5034418;28;20173;-40
2022/12/03 05:45:42;;;;;;;21.37;12.20;;;2.00;99.90;;;;;;5034341;28;20169;-43
2022/12/03 05:48:10;;;;;;;21.33;11.57;;;2.00;99.90;;;;;;5034363;28;20180;-42
2022/12/03 05:50:38;;;;;;;24.10;13.17;;;2.00;99.90;;;;;;5034238;28;20177;-42
2022/12/03 05:53:04;;;;;;;18.20;11.13;;;1.90;99.90;;;;;;5016351;28;20188;-41
2022/12/03 05:55:30;;;;;;;21.10;12.93;;;1.90;99.90;;;;;;5033201;28;20196;-42
2022/12/03 05:57:56;;;;;;;22.17;12.97;;;1.90;99.90;;;;;;5033875;28;20278;-43
2022/12/03 06:00:27;;;;;;;23.10;12.87;;;1.90;99.90;;;;;;5033826;28;20635;-44
2022/12/03 06:02:53;;;;;;;22.63;12.77;;;1.90;99.90;;;;;;5034029;28;20731;-42
2022/12/03 06:05:20;;;;;;;23.40;13.40;;;1.90;99.90;;;;;;5034139;28;20180;-41
2022/12/03 06:07:46;;;;;;;21.90;11.90;;;1.90;99.90;;;;;;5034086;28;20226;-43
2022/12/03 06:10:15;;;;;;;22.07;12.60;;;1.90;99.90;;;;;;5033624;28;20236;-43
2022/12/03 06:12:41;;;;;;;20.90;12.63;;;1.90;99.90;;;;;;5033993;28;20268;-43
2022/12/03 06:15:07;;;;;;;22.53;12.47;;;1.90;99.90;;;;;;5033637;28;20272;-43
2022/12/03 06:17:33;;;;;;;23.13;13.07;;;1.90;99.90;;;;;;5033939;28;20526;-41
2022/12/03 06:19:59;;;;;;;26.67;13.20;;;1.90;99.90;;;;;;5016192;28;20208;-41
2022/12/03 06:22:24;;;;;;;20.80;12.23;;;1.90;99.90;;;;;;5034079;28;20651;-44
2022/12/03 06:24:50;;;;;;;22.43;12.37;;;1.90;99.90;;;;;;5034107;28;20181;-43
2022/12/03 06:27:16;;;;;;;17.93;10.30;;;1.90;99.90;;;;;;5033827;28;20460;-44
2022/12/03 06:29:41;;;;;;;26.90;12.03;;;1.90;99.90;;;;;;5033395;28;20197;-43
2022/12/03 06:32:07;;;;;;;24.67;12.70;;;1.90;99.90;;;;;;5015804;28;20188;-42
2022/12/03 06:34:33;;;;;;;18.90;11.27;;;1.90;99.90;;;;;;5016353;28;20177;-44
2022/12/03 06:36:59;;;;;;;21.03;12.00;;;1.90;99.90;;;;;;5034124;28;20184;-41
2022/12/03 06:39:24;;;;;;;18.40;10.07;;;1.90;99.90;;;;;;5033509;28;20578;-42
2022/12/03 06:41:50;;;;;;;23.80;12.63;;;1.90;99.90;;;;;;5033701;28;20283;-43
2022/12/03 06:44:16;;;;;;;22.63;12.37;;;1.90;99.90;;;;;;5033668;28;20176;-42
2022/12/03 06:46:41;;;;;;;23.57;11.97;;;1.90;99.90;;;;;;5033245;28;20173;-45
2022/12/03 06:49:08;;;;;;;19.37;11.00;;;1.90;99.90;;;;;;5015501;28;20201;-43
2022/12/03 06:51:34;;;;;;;23.67;12.80;;;1.90;99.90;;;;;;5015656;28;20263;-44
2022/12/03 06:54:00;;;;;;;25.40;13.77;;;1.90;99.90;;;;;;5033270;28;20181;-45
2022/12/03 06:56:26;;;;;;;21.80;11.77;;;1.90;99.90;;;;;;5033125;28;20190;-43
2022/12/03 06:58:51;;;;;;;22.83;12.00;;;1.80;99.90;;;;;;5033155;28;20201;-43
2022/12/03 07:01:17;;;;;;;24.03;13.53;;;1.90;99.90;;;;;;5032992;28;20608;-44
2022/12/03 07:03:42;;;;;;;27.00;12.90;;;1.80;99.90;;;;;;5032757;28;20192;-43
2022/12/03 07:06:08;;;;;;;24.53;11.37;;;1.80;99.90;;;;;;5035681;28;20222;-43
2022/12/03 07:08:34;;;;;;;25.40;12.13;;;1.80;99.90;;;;;;5037208;28;20278;-45
2022/12/03 07:10:59;;;;;;;22.87;12.90;;;1.80;99.90;;;;;;5037475;28;20204;-46
2022/12/03 07:13:25;;;;;;;23.40;12.63;;;1.80;99.90;;;;;;5037047;28;20660;-43
2022/12/03 07:15:51;;;;;;;26.53;12.03;;;1.80;99.90;;;;;;5036812;28;20189;-43
2022/12/03 07:18:16;;;;;;;22.20;12.07;;;1.80;99.90;;;;;;5037120;28;20192;-43
2022/12/03 07:20:42;;;;;;;26.90;13.03;;;1.80;99.90;;;;;;5019038;28;20205;-43
2022/12/03 07:23:07;;;;;;;22.07;12.83;;;1.70;99.90;;;;;;5036853;28;20667;-42
2022/12/03 07:25:33;;;;;;;24.60;12.37;;;1.80;99.90;;;;;;5037035;28;20242;-41
2022/12/03 07:27:59;;;;;;;21.97;11.30;;;1.70;99.90;;;;;;5036671;28;20664;-45
2022/12/03 07:30:26;;;;;;;23.17;12.97;;;1.70;99.90;;;;;;5036872;28;20260;-42
2022/12/03 07:32:52;;;;;;;26.23;13.03;;;1.80;99.90;;;;;;5018946;28;20271;-44
2022/12/03 07:35:17;;;;;;;25.30;12.23;;;1.70;99.90;;;;;;5036833;28;20272;-43
2022/12/03 07:37:43;;;;;;;24.67;11.83;;;1.80;99.90;;;;;;5036523;28;20191;-46
2022/12/03 07:40:09;;;;;;;25.00;12.47;;;1.80;99.90;;;;;;5036377;28;20602;-42
2022/12/03 07:42:35;;;;;;;22.30;12.67;;;1.70;99.90;;;;;;5036432;28;20272;-43
2022/12/03 07:45:01;;;;;;;24.93;12.63;;;1.70;99.90;;;;;;5036623;28;20201;-43
2022/12/03 07:47:26;;;;;;;23.90;12.93;;;1.80;99.90;;;;;;5036392;28;20544;-43
2022/12/03 07:49:52;;;;;;;20.50;11.20;;;1.80;99.90;;;;;;5036249;28;20284;-42
2022/12/03 07:52:17;;;;;;;22.63;12.40;;;1.80;99.90;;;;;;5036226;28;20177;-44
2022/12/03 07:54:43;;;;;;;22.73;12.23;;;1.80;99.90;;;;;;5036214;28;20207;-44
2022/12/03 07:57:09;;;;;;;25.33;14.17;;;1.80;99.90;;;;;;5036151;28;20181;-44
2022/12/03 07:59:34;;;;;;;23.67;11.93;;;1.80;99.90;;;;;;5036253;28;20197;-42
2022/12/03 08:02:01;;;;;;;24.33;12.40;;;1.80;99.90;;;;;;5018219;28;20545;-42
2022/12/03 08:04:27;;;;;;;24.67;12.50;;;1.70;99.90;;;;;;5018362;28;20546;-44
2022/12/03 08:06:52;;;;;;;22.73;12.00;;;1.70;99.90;;;;;;5035948;28;20231;-43
2022/12/03 08:09:18;;;;;;;26.20;11.77;;;1.80;99.90;;;;;;5036142;28;20200;-43
2022/12/03 08:11:47;;;;;;;22.20;11.70;;;1.80;99.90;;;;;;5036403;28;20606;-43
2022/12/03 08:14:15;;;;;;;23.00;12.10;;;1.80;99.90;;;;;;5036090;28;20188;-44
2022/12/03 08:16:42;;;;;;;23.93;13.20;;;1.70;99.90;;;;;;5036066;28;20220;-44
2022/12/03 08:19:13;;;;;;;24.63;11.93;;;1.80;99.90;;;;;;5036077;28;20197;-44
2022/12/03 08:21:39;;;;;;;28.13;14.30;;;1.80;99.90;;;;;;5036075;28;20227;-45
2022/12/03 08:24:16;;;;;;;27.07;13.30;;;1.80;99.90;;;;;;5035738;28;20169;-45
2022/12/03 08:26:44;;;;;;;26.40;13.50;;;1.80;99.90;;;;;;5036231;28;20164;-46
2022/12/03 08:29:12;;;;;;;24.60;12.83;;;1.80;99.90;;;;;;5035976;28;20202;-45
2022/12/03 08:31:38;;;;;;;24.67;13.43;;;1.80;99.90;;;;;;5036160;28;20189;-44
2022/12/03 08:34:25;;;;;;;28.20;13.10;;;1.80;99.90;;;;;;5018207;28;20238;-42
2022/12/03 08:36:58;;;;;;;23.90;12.70;;;1.80;99.90;;;;;;5035909;28;20181;-43
2022/12/03 08:39:36;;;;;;;24.27;12.67;;;1.80;99.90;;;;;;5035627;28;20730;-43
2022/12/03 08:45:17;;;;;;;25.33;12.07;;;1.80;99.90;;;;;;5035767;28;20165;-43
2022/12/03 08:47:42;;;;;;;22.53;12.67;;;1.90;99.90;;;;;;5035791;28;20173;-43
2022/12/03 08:50:32;;;;;;;29.43;12.73;;;1.90;99.90;;;;;;5035302;28;20212;-43
2022/12/03 08:53:13;;;;;;;22.83;12.60;;;1.90;99.90;;;;;;5035551;28;20191;-45
2022/12/03 08:55:53;;;;;;;27.57;13.47;;;1.90;99.90;;;;;;5017551;28;20196;-43
2022/12/03 08:58:35;;;;;;;27.27;12.90;;;1.90;99.90;;;;;;5035270;28;20242;-43
2022/12/03 09:01:10;;;;;;;24.93;12.73;;;1.90;99.90;;;;;;5035350;28;20200;-43
2022/12/03 09:03:37;;;;;;;24.20;13.17;;;1.90;99.90;;;;;;5034777;28;20193;-44
2022/12/03 09:06:03;;;;;;;27.17;13.53;;;1.90;99.90;;;;;;5035113;28;20173;-41
2022/12/03 09:08:29;;;;;;;23.73;13.17;;;1.90;99.90;;;;;;5034869;28;20327;-42
2022/12/03 09:10:54;;;;;;;22.83;12.07;;;1.90;99.90;;;;;;5034926;28;20173;-43
2022/12/03 09:13:20;;;;;;;24.93;13.17;;;1.90;99.90;;;;;;5017875;28;20188;-42
2022/12/03 09:15:45;;;;;;;26.47;12.00;;;1.90;99.90;;;;;;5034771;28;20208;-43
2022/12/03 09:18:11;;;;;;;31.57;13.40;;;2.00;99.90;;;;;;5034898;28;20176;-46
2022/12/03 09:20:36;;;;;;;28.00;13.60;;;2.00;99.90;;;;;;5034715;28;20200;-42
2022/12/03 09:23:02;;;;;;;24.47;12.00;;;2.00;99.90;;;;;;5035110;28;20181;-44
2022/12/03 09:25:27;;;;;;;24.67;12.17;;;2.00;99.90;;;;;;5034780;28;20664;-45
2022/12/03 09:27:53;;;;;;;27.07;13.97;;;2.00;99.90;;;;;;5034299;28;20199;-43
2022/12/03 09:30:19;;;;;;;24.60;12.70;;;2.00;99.90;;;;;;5034797;28;20521;-43
2022/12/03 09:32:44;;;;;;;26.60;13.43;;;2.00;99.90;;;;;;5034554;28;20181;-42
2022/12/03 09:35:10;;;;;;;26.47;14.07;;;2.00;99.90;;;;;;5034741;28;20184;-44
2022/12/03 09:37:35;;;;;;;27.10;13.23;;;2.00;99.90;;;;;;5034315;28;20181;-42
2022/12/03 09:40:01;;;;;;;26.43;13.67;;;2.10;99.90;;;;;;5034166;28;20561;-45
2022/12/03 09:42:27;;;;;;;26.03;14.33;;;2.10;99.90;;;;;;5034672;28;20234;-45
2022/12/03 09:44:53;;;;;;;28.70;12.97;;;2.10;99.90;;;;;;5034067;28;20267;-44
2022/12/03 09:47:19;;;;;;;25.40;13.33;;;2.10;99.90;;;;;;5034354;28;20177;-45
2022/12/03 09:49:45;;;;;;;25.97;13.60;;;2.10;99.90;;;;;;5033983;28;20212;-45
2022/12/03 09:52:18;;;;;;;24.00;13.10;;;2.10;99.90;;;;;;5034232;28;20176;-44
2022/12/03 09:54:43;;;;;;;25.50;14.10;;;2.10;99.90;;;;;;5034498;28;20174;-44
2022/12/03 09:57:12;;;;;;;25.27;12.37;;;2.10;99.90;;;;;;5033932;28;20235;-45
2022/12/03 09:59:38;;;;;;;29.77;15.60;;;2.10;99.90;;;;;;5034113;28;20201;-44
2022/12/03 10:02:18;;;;;;;27.77;15.73;;;2.20;99.90;;;;;;5034127;28;20724;-44
2022/12/03 10:04:44;;;;;;;30.63;14.47;;;2.10;99.90;;;;;;5034270;28;20633;-46
2022/12/03 10:07:09;;;;;;;29.83;15.40;;;2.20;99.90;;;;;;5033747;28;20212;-45
2022/12/03 10:09:35;;;;;;;21.93;11.73;;;2.20;99.90;;;;;;5033831;28;20584;-46
2022/12/03 10:12:00;;;;;;;25.83;13.97;;;2.20;99.90;;;;;;5033641;28;20252;-44
2022/12/03 10:14:26;;;;;;;22.93;12.07;;;2.20;99.90;;;;;;5033598;28;20184;-43
2022/12/03 10:16:52;;;;;;;29.73;14.07;;;2.30;99.90;;;;;;5016294;28;20235;-45
2022/12/03 10:19:30;;;;;;;26.40;13.17;;;2.30;99.90;;;;;;5015741;28;20219;-43
2022/12/03 10:21:56;;;;;;;21.53;12.53;;;2.30;99.90;;;;;;5033502;28;20243;-44
2022/12/03 10:24:30;;;;;;;23.07;12.93;;;2.30;99.90;;;;;;5015722;28;20545;-42
2022/12/03 10:27:23;;;;;;;22.00;10.40;;;2.30;99.90;;;;;;5015748;28;20169;-45
2022/12/03 10:29:59;;;;;;;25.07;13.10;;;2.30;99.90;;;;;;5033809;28;20196;-44
2022/12/03 10:32:40;;;;;;;28.20;16.37;;;2.40;99.90;;;;;;5016037;28;20226;-42
2022/12/03 10:35:11;;;;;;;32.77;17.00;;;2.40;99.90;;;;;;5033591;28;20205;-44
2022/12/03 10:37:58;;;;;;;29.13;14.73;;;2.40;99.90;;;;;;5033604;28;20153;-44
2022/12/03 10:40:35;;;;;;;34.53;17.53;;;2.40;99.90;;;;;;5033089;28;20196;-43
2022/12/03 10:43:21;;;;;;;30.50;16.37;;;2.40;99.90;;;;;;5015748;28;20180;-43
2022/12/03 10:46:10;;;;;;;25.97;12.77;;;2.40;99.90;;;;;;4999117;28;20181;-44
2022/12/03 10:48:35;;;;;;;32.00;16.40;;;2.50;99.90;;;;;;5033475;28;20197;-40
2022/12/03 10:51:16;;;;;;;26.73;13.90;;;2.50;99.90;;;;;;5033241;28;20177;-44
2022/12/03 10:53:42;;;;;;;33.97;15.83;;;2.60;99.90;;;;;;5033217;28;20203;-44
2022/12/03 10:56:31;;;;;;;40.33;18.80;;;2.50;99.90;;;;;;5033509;28;20644;-41
2022/12/03 10:58:57;;;;;;;26.23;15.03;;;2.60;99.90;;;;;;5033065;28;20371;-44
2022/12/03 11:01:24;;;;;;;32.57;16.77;;;2.60;99.90;;;;;;5033129;28;20286;-43
2022/12/03 11:03:50;;;;;;;29.40;13.77;;;2.60;99.90;;;;;;5037552;28;20198;-42
2022/12/03 11:06:18;;;;;;;22.83;13.10;;;2.60;99.90;;;;;;5073118;28;20294;-43
2022/12/03 11:08:52;;;;;;;25.17;13.47;;;2.60;99.90;;;;;;5073495;28;20680;-42
2022/12/03 11:11:22;;;;;;;22.97;13.00;;;2.60;99.90;;;;;;5073535;28;20155;-42
2022/12/03 11:13:52;;;;;;;25.77;12.07;;;2.60;99.90;;;;;;5072755;28;20551;-44
2022/12/03 11:16:39;;;;;;;28.33;12.17;;;2.60;99.90;;;;;;5055500;28;20658;-43
2022/12/03 11:19:16;;;;;;;25.90;13.53;;;2.70;99.90;;;;;;5072810;28;20195;-43
2022/12/03 11:22:08;;;;;;;22.17;12.47;;;2.70;99.90;;;;;;5072850;28;20644;-42
2022/12/03 11:24:36;;;;;;;26.40;14.20;;;2.70;99.90;;;;;;5073184;28;20152;-45
2022/12/03 11:27:01;;;;;;;25.63;13.97;;;2.80;99.90;;;;;;5072907;28;20171;-47
2022/12/03 11:29:52;;;;;;;25.97;13.40;;;2.80;99.90;;;;;;5072683;28;20702;-43
2022/12/03 11:32:38;;;;;;;22.77;13.60;;;2.90;99.90;;;;;;5073121;28;20243;-42
2022/12/03 11:35:37;;;;;;;30.63;13.27;;;2.80;99.90;;;;;;5072863;28;20179;-42
2022/12/03 11:38:36;;;;;;;25.73;12.57;;;2.90;99.90;;;;;;5003436;28;20183;-43
2022/12/03 11:41:14;;;;;;;22.90;13.43;;;2.90;99.90;;;;;;5054716;28;20211;-41
2022/12/03 11:43:52;;;;;;;21.87;13.00;;;2.90;99.90;;;;;;5072652;28;20191;-46
2022/12/03 11:46:20;;;;;;;23.70;12.10;;;2.80;99.90;;;;;;5054787;28;20219;-43
2022/12/03 11:48:47;;;;;;;22.20;11.90;;;2.80;99.90;;;;;;5054559;28;20246;-43
2022/12/03 11:51:15;;;;;;;24.70;13.00;;;2.80;99.90;;;;;;5054599;28;20258;-43
2022/12/03 11:53:42;;;;;;;20.77;11.33;;;2.90;99.90;;;;;;5075633;28;20230;-44
2022/12/03 11:56:17;;;;;;;21.40;12.63;;;2.80;99.90;;;;;;5076167;28;20176;-46
2022/12/03 11:58:44;;;;;;;24.37;13.10;;;2.80;99.90;;;;;;5076330;28;20232;-43
2022/12/03 12:01:10;;;;;;;20.97;12.30;;;2.80;99.90;;;;;;5076022;28;20703;-44
2022/12/03 12:03:43;;;;;;;21.50;11.60;;;2.90;99.90;;;;;;5075892;28;20195;-42
2022/12/03 12:06:12;;;;;;;18.97;11.53;;;2.90;99.90;;;;;;5076085;28;20221;-43
2022/12/03 12:08:40;;;;;;;23.37;11.97;;;2.90;99.90;;;;;;5076226;28;20282;-45
2022/12/03 12:11:35;;;;;;;19.17;10.90;;;2.90;99.90;;;;;;5057837;28;20179;-44
2022/12/03 12:14:02;;;;;;;20.37;12.53;;;2.90;99.90;;;;;;5076007;28;20163;-45
2022/12/03 12:16:51;;;;;;;18.77;11.33;;;2.90;99.90;;;;;;5075833;28;20172;-43
2022/12/03 12:19:41;;;;;;;20.27;10.50;;;3.00;99.90;;;;;;5075924;28;20187;-43
2022/12/03 12:22:18;;;;;;;20.80;11.83;;;3.00;99.90;;;;;;5076115;28;20188;-43
2022/12/03 12:24:47;;;;;;;20.27;11.40;;;3.00;99.90;;;;;;5076156;28;20191;-46
2022/12/03 12:27:15;;;;;;;22.60;11.90;;;3.00;99.90;;;;;;5075847;28;20171;-43
2022/12/03 12:29:46;;;;;;;20.63;12.67;;;3.00;99.90;;;;;;5075539;28;20203;-43
2022/12/03 12:32:15;;;;;;;26.30;14.83;;;3.10;99.90;;;;;;5057544;28;20187;-45
2022/12/03 12:34:44;;;;;;;22.03;12.83;;;3.10;99.90;;;;;;5075821;28;20221;-44
2022/12/03 12:37:15;;;;;;;26.23;13.33;;;3.20;99.90;;;;;;5076268;28;20182;-41
2022/12/03 12:39:41;;;;;;;21.70;12.90;;;3.20;99.90;;;;;;5075734;28;20538;-42
2022/12/03 12:42:27;;;;;;;23.60;12.87;;;3.20;99.90;;;;;;5057414;28;20200;-45
2022/12/03 12:44:56;;;;;;;20.70;12.27;;;3.20;99.90;;;;;;5075862;28;20263;-43
2022/12/03 12:47:23;;;;;;;18.10;9.93;;;3.20;99.90;;;;;;5075259;28;20538;-44
2022/12/03 12:49:49;;;;;;;22.10;12.87;;;3.10;99.90;;;;;;5057516;28;20548;-42
2022/12/03 12:52:14;;;;;;;23.23;13.87;;;3.10;99.90;;;;;;5075148;28;20184;-41
2022/12/03 12:54:40;;;;;;;20.93;12.37;;;3.10;99.90;;;;;;5075468;28;20250;-41
2022/12/03 12:57:15;;;;;;;20.97;12.07;;;3.10;99.90;;;;;;5075114;28;20179;-43
2022/12/03 12:59:41;;;;;;;21.43;12.10;;;3.10;99.90;;;;;;5057436;28;20218;-42
2022/12/03 13:02:43;;;;;;;21.27;12.63;;;3.10;99.90;;;;;;5074769;28;20203;-43